createdAt,value
2018-01-08T00:00:10.137Z,929.16
2018-01-08T00:00:23.242Z,929.14
2018-01-08T00:00:35.845Z,929.12
2018-01-08T00:00:48.972Z,929.14
2018-01-08T00:01:00.660Z,929.18
2018-01-08T00:01:13.377Z,929.13
2018-01-08T00:01:26.453Z,929.15
2018-01-08T00:01:38.577Z,929.12
2018-01-08T00:01:51.192Z,929.08
2018-01-08T00:02:04.255Z,929.14
2018-01-08T00:02:17.258Z,929.2
2018-01-08T00:02:30.312Z,929.16
2018-01-08T00:02:43.459Z,929.24
2018-01-08T00:02:56.564Z,929.25
2018-01-08T00:03:09.220Z,929.13
2018-01-08T00:03:22.252Z,929.13
2018-01-08T00:03:35.388Z,929.18
2018-01-08T00:03:48.466Z,929.2
2018-01-08T00:04:01.555Z,929.18
2018-01-08T00:04:17.791Z,929.18
2018-01-08T00:04:30.901Z,929.15
2018-01-08T00:04:43.468Z,929.19
2018-01-08T00:04:56.528Z,929.16
2018-01-08T00:05:09.171Z,929.22
2018-01-08T00:05:21.795Z,929.14
2018-01-08T00:05:33.458Z,929.17
2018-01-08T00:05:46.087Z,929.15
2018-01-08T00:05:59.107Z,929.22
2018-01-08T00:06:11.732Z,929.17
2018-01-08T00:06:24.829Z,929.17
2018-01-08T00:06:37.446Z,929.14
2018-01-08T00:06:50.574Z,929.16
2018-01-08T00:07:03.659Z,929.22
2018-01-08T00:07:16.728Z,929.2
2018-01-08T00:07:29.875Z,929.2
2018-01-08T00:07:43.181Z,929.22
2018-01-08T00:07:56.212Z,929.22
2018-01-08T00:08:08.806Z,929.27
2018-01-08T00:08:21.964Z,929.17
2018-01-08T00:08:35.103Z,929.19
2018-01-08T00:08:48.167Z,929.17
2018-01-08T00:09:01.212Z,929.18
2018-01-08T00:09:15.459Z,929.18
2018-01-08T00:09:27.653Z,929.18
2018-01-08T00:09:40.744Z,929.22
2018-01-08T00:09:53.844Z,929.17
2018-01-08T00:10:06.545Z,929.26
2018-01-08T00:10:19.790Z,929.26
2018-01-08T00:10:32.605Z,929.21
2018-01-08T00:10:45.207Z,929.27
2018-01-08T00:10:58.103Z,929.18
2018-01-08T00:11:10.815Z,929.2
2018-01-08T00:11:22.863Z,929.2
2018-01-08T00:11:35.453Z,929.13
2018-01-08T00:11:48.574Z,929.17
2018-01-08T00:12:01.185Z,929.19
2018-01-08T00:12:13.338Z,929.15
2018-01-08T00:12:26.546Z,929.17
2018-01-08T00:12:38.764Z,929.22
2018-01-08T00:12:51.425Z,929.15
2018-01-08T00:13:04.049Z,929.21
2018-01-08T00:13:16.864Z,929.19
2018-01-08T00:13:29.949Z,929.23
2018-01-08T00:13:43.002Z,929.21
2018-01-08T00:13:55.597Z,929.25
2018-01-08T00:14:08.649Z,929.19
2018-01-08T00:14:20.818Z,929.17
2018-01-08T00:14:33.503Z,929.21
2018-01-08T00:14:46.698Z,929.19
2018-01-08T00:14:59.273Z,929.3
2018-01-08T00:15:12.423Z,929.24
2018-01-08T00:15:24.989Z,929.2
2018-01-08T00:15:38.144Z,929.21
2018-01-08T00:15:50.778Z,929.2
2018-01-08T00:16:03.889Z,929.24
2018-01-08T00:16:16.578Z,929.23
2018-01-08T00:16:29.693Z,929.23
2018-01-08T00:16:42.315Z,929.22
2018-01-08T00:16:55.199Z,929.26
2018-01-08T00:17:08.253Z,929.25
2018-01-08T00:17:21.291Z,929.27
2018-01-08T00:17:34.338Z,929.27
2018-01-08T00:17:46.973Z,929.3
2018-01-08T00:18:00.169Z,929.3
2018-01-08T00:18:11.822Z,929.27
2018-01-08T00:18:23.900Z,929.3
2018-01-08T00:18:36.507Z,929.27
2018-01-08T00:18:49.089Z,929.31
2018-01-08T00:19:01.642Z,929.28
2018-01-08T00:19:14.763Z,929.25
2018-01-08T00:19:27.801Z,929.29
2018-01-08T00:19:39.886Z,929.32
2018-01-08T00:19:52.891Z,929.29
2018-01-08T00:20:05.964Z,929.36
2018-01-08T00:20:18.524Z,929.33
2018-01-08T00:20:31.134Z,929.29
2018-01-08T00:20:44.261Z,929.37
2018-01-08T00:20:57.287Z,929.34
2018-01-08T00:21:10.627Z,929.31
2018-01-08T00:21:22.787Z,929.26
2018-01-08T00:21:34.896Z,929.28
2018-01-08T00:21:47.949Z,929.34
2018-01-08T00:22:01.061Z,929.31
2018-01-08T00:22:14.207Z,929.3
2018-01-08T00:22:26.893Z,929.31
2018-01-08T00:22:39.022Z,929.32
2018-01-08T00:22:51.680Z,929.32
2018-01-08T00:23:04.803Z,929.32
2018-01-08T00:23:17.894Z,929.3
2018-01-08T00:23:31.043Z,929.31
2018-01-08T00:23:43.843Z,929.29
2018-01-08T00:23:56.960Z,929.28
2018-01-08T00:24:09.635Z,929.31
2018-01-08T00:24:25.933Z,929.35
2018-01-08T00:24:38.566Z,929.35
2018-01-08T00:24:51.649Z,929.35
2018-01-08T00:25:04.787Z,929.35
2018-01-08T00:25:17.936Z,929.34
2018-01-08T00:25:30.631Z,929.34
2018-01-08T00:25:43.728Z,929.33
2018-01-08T00:25:56.352Z,929.36
2018-01-08T00:26:08.995Z,929.34
2018-01-08T00:26:22.051Z,929.37
2018-01-08T00:26:35.100Z,929.34
2018-01-08T00:26:48.158Z,929.38
2018-01-08T00:27:01.253Z,929.4
2018-01-08T00:27:13.944Z,929.39
2018-01-08T00:27:26.572Z,929.38
2018-01-08T00:27:38.697Z,929.37
2018-01-08T00:27:51.790Z,929.34
2018-01-08T00:28:04.839Z,929.39
2018-01-08T00:28:17.570Z,929.36
2018-01-08T00:28:30.590Z,929.37
2018-01-08T00:28:43.681Z,929.41
2018-01-08T00:28:56.786Z,929.44
2018-01-08T00:29:09.880Z,929.41
2018-01-08T00:29:22.970Z,929.38
2018-01-08T00:29:36.022Z,929.38
2018-01-08T00:29:49.114Z,929.37
2018-01-08T00:30:02.438Z,929.41
2018-01-08T00:30:15.468Z,929.44
2018-01-08T00:30:28.506Z,929.44
2018-01-08T00:30:41.105Z,929.42
2018-01-08T00:30:54.201Z,929.39
2018-01-08T00:31:07.252Z,929.43
2018-01-08T00:31:19.867Z,929.45
2018-01-08T00:31:32.024Z,929.47
2018-01-08T00:31:44.262Z,929.44
2018-01-08T00:31:56.834Z,929.44
2018-01-08T00:32:09.888Z,929.45
2018-01-08T00:32:22.546Z,929.45
2018-01-08T00:32:34.729Z,929.38
2018-01-08T00:32:47.775Z,929.42
2018-01-08T00:33:00.808Z,929.46
2018-01-08T00:33:12.944Z,929.43
2018-01-08T00:33:25.065Z,929.4
2018-01-08T00:33:38.111Z,929.44
2018-01-08T00:33:51.138Z,929.43
2018-01-08T00:34:04.241Z,929.4
2018-01-08T00:34:17.237Z,929.46
2018-01-08T00:34:30.348Z,929.42
2018-01-08T00:34:42.927Z,929.46
2018-01-08T00:34:56.066Z,929.42
2018-01-08T00:35:09.099Z,929.43
2018-01-08T00:35:21.780Z,929.42
2018-01-08T00:35:33.936Z,929.41
2018-01-08T00:35:46.606Z,929.44
2018-01-08T00:35:59.650Z,929.38
2018-01-08T00:36:12.381Z,929.41
2018-01-08T00:36:25.622Z,929.46
2018-01-08T00:36:38.241Z,929.45
2018-01-08T00:36:50.863Z,929.43
2018-01-08T00:37:04.047Z,929.43
2018-01-08T00:37:17.146Z,929.38
2018-01-08T00:37:29.812Z,929.43
2018-01-08T00:37:42.477Z,929.47
2018-01-08T00:37:55.553Z,929.44
2018-01-08T00:38:08.142Z,929.45
2018-01-08T00:38:21.211Z,929.44
2018-01-08T00:38:32.938Z,929.48
2018-01-08T00:38:45.504Z,929.51
2018-01-08T00:38:58.144Z,929.48
2018-01-08T00:39:11.263Z,929.54
2018-01-08T00:39:24.668Z,929.53
2018-01-08T00:39:37.268Z,929.52
2018-01-08T00:39:50.420Z,929.52
2018-01-08T00:40:03.428Z,929.53
2018-01-08T00:40:16.030Z,929.6
2018-01-08T00:40:29.077Z,929.53
2018-01-08T00:40:42.133Z,929.49
2018-01-08T00:40:55.267Z,929.51
2018-01-08T00:41:07.864Z,929.53
2018-01-08T00:41:20.957Z,929.51
2018-01-08T00:41:33.994Z,929.52
2018-01-08T00:41:46.679Z,929.52
2018-01-08T00:41:59.785Z,929.51
2018-01-08T00:42:12.381Z,929.51
2018-01-08T00:42:25.695Z,929.51
2018-01-08T00:42:38.758Z,929.54
2018-01-08T00:42:50.993Z,929.53
2018-01-08T00:43:04.129Z,929.53
2018-01-08T00:43:17.164Z,929.53
2018-01-08T00:43:30.254Z,929.54
2018-01-08T00:43:42.834Z,929.56
2018-01-08T00:43:55.919Z,929.58
2018-01-08T00:44:08.937Z,929.56
2018-01-08T00:44:21.580Z,929.53
2018-01-08T00:44:33.758Z,929.58
2018-01-08T00:44:46.325Z,929.58
2018-01-08T00:44:58.955Z,929.6
2018-01-08T00:45:12.037Z,929.56
2018-01-08T00:45:24.627Z,929.57
2018-01-08T00:45:37.209Z,929.58
2018-01-08T00:45:50.299Z,929.59
2018-01-08T00:46:03.359Z,929.6
2018-01-08T00:46:15.979Z,929.58
2018-01-08T00:46:28.631Z,929.57
2018-01-08T00:46:40.792Z,929.59
2018-01-08T00:46:53.448Z,929.56
2018-01-08T00:47:06.554Z,929.56
2018-01-08T00:47:19.090Z,929.59
2018-01-08T00:47:32.162Z,929.58
2018-01-08T00:47:45.301Z,929.57
2018-01-08T00:47:57.425Z,929.58
2018-01-08T00:48:10.458Z,929.57
2018-01-08T00:48:23.079Z,929.57
2018-01-08T00:48:36.185Z,929.63
2018-01-08T00:48:49.293Z,929.61
2018-01-08T00:49:02.376Z,929.66
2018-01-08T00:49:14.919Z,929.62
2018-01-08T00:49:27.507Z,929.55
2018-01-08T00:49:40.573Z,929.58
2018-01-08T00:49:53.628Z,929.56
2018-01-08T00:50:06.244Z,929.64
2018-01-08T00:50:18.404Z,929.55
2018-01-08T00:50:31.435Z,929.61
2018-01-08T00:50:43.976Z,929.58
2018-01-08T00:50:56.511Z,929.6
2018-01-08T00:51:09.647Z,929.56
2018-01-08T00:51:22.258Z,929.57
2018-01-08T00:51:34.933Z,929.56
2018-01-08T00:51:47.565Z,929.56
2018-01-08T00:52:00.570Z,929.58
2018-01-08T00:52:13.250Z,929.57
2018-01-08T00:52:26.311Z,929.55
2018-01-08T00:52:39.409Z,929.55
2018-01-08T00:52:54.089Z,929.55
2018-01-08T00:53:06.690Z,929.59
2018-01-08T00:53:19.314Z,929.6
2018-01-08T00:53:31.433Z,929.62
2018-01-08T00:53:44.098Z,929.57
2018-01-08T00:53:57.205Z,929.61
2018-01-08T00:54:09.933Z,929.58
2018-01-08T00:54:23.127Z,929.53
2018-01-08T00:54:36.781Z,929.56
2018-01-08T00:54:48.939Z,929.62
2018-01-08T00:55:02.027Z,929.55
2018-01-08T00:55:14.688Z,929.53
2018-01-08T00:55:27.293Z,929.57
2018-01-08T00:55:40.371Z,929.57
2018-01-08T00:55:52.933Z,929.61
2018-01-08T00:56:05.059Z,929.63
2018-01-08T00:56:18.071Z,929.6
2018-01-08T00:56:31.155Z,929.53
2018-01-08T00:56:44.209Z,929.56
2018-01-08T00:56:56.826Z,929.59
2018-01-08T00:57:09.379Z,929.56
2018-01-08T00:57:22.077Z,929.61
2018-01-08T00:57:35.196Z,929.58
2018-01-08T00:57:48.314Z,929.6
2018-01-08T00:58:00.842Z,929.59
2018-01-08T00:58:12.962Z,929.6
2018-01-08T00:58:26.159Z,929.58
2018-01-08T00:58:38.729Z,929.61
2018-01-08T00:58:51.788Z,929.62
2018-01-08T00:59:04.919Z,929.63
2018-01-08T00:59:17.590Z,929.61
2018-01-08T00:59:29.783Z,929.62
2018-01-08T00:59:42.898Z,929.58
2018-01-08T00:59:56.058Z,929.6
2018-01-08T01:00:09.106Z,929.61
2018-01-08T01:00:22.190Z,929.61
2018-01-08T01:00:34.459Z,929.61
2018-01-08T01:00:47.513Z,929.61
2018-01-08T01:01:00.581Z,929.61
2018-01-08T01:01:12.743Z,929.59
2018-01-08T01:01:25.882Z,929.63
2018-01-08T01:01:38.012Z,929.61
2018-01-08T01:01:51.051Z,929.62
2018-01-08T01:02:04.124Z,929.6
2018-01-08T01:02:17.186Z,929.61
2018-01-08T01:02:30.220Z,929.63
2018-01-08T01:02:43.289Z,929.63
2018-01-08T01:02:56.301Z,929.59
2018-01-08T01:03:09.356Z,929.61
2018-01-08T01:03:22.410Z,929.62
2018-01-08T01:03:35.534Z,929.61
2018-01-08T01:03:48.651Z,929.6
2018-01-08T01:04:01.750Z,929.61
2018-01-08T01:04:13.824Z,929.63
2018-01-08T01:04:26.961Z,929.63
2018-01-08T01:04:40.104Z,929.56
2018-01-08T01:04:53.208Z,929.6
2018-01-08T01:05:05.768Z,929.63
2018-01-08T01:05:17.916Z,929.55
2018-01-08T01:05:30.952Z,929.59
2018-01-08T01:05:43.538Z,929.62
2018-01-08T01:05:56.180Z,929.64
2018-01-08T01:06:08.848Z,929.63
2018-01-08T01:06:21.477Z,929.6
2018-01-08T01:06:34.543Z,929.64
2018-01-08T01:06:47.090Z,929.61
2018-01-08T01:06:59.778Z,929.63
2018-01-08T01:07:12.407Z,929.59
2018-01-08T01:07:25.458Z,929.59
2018-01-08T01:07:38.058Z,929.55
2018-01-08T01:07:51.263Z,929.59
2018-01-08T01:08:04.384Z,929.58
2018-01-08T01:08:17.076Z,929.62
2018-01-08T01:08:30.149Z,929.59
2018-01-08T01:08:42.780Z,929.64
2018-01-08T01:08:55.399Z,929.58
2018-01-08T01:09:08.500Z,929.59
2018-01-08T01:09:21.612Z,929.63
2018-01-08T01:09:35.008Z,929.54
2018-01-08T01:09:48.140Z,929.56
2018-01-08T01:10:00.797Z,929.61
2018-01-08T01:10:12.465Z,929.64
2018-01-08T01:10:25.480Z,929.61
2018-01-08T01:10:38.506Z,929.67
2018-01-08T01:10:50.718Z,929.62
2018-01-08T01:11:03.322Z,929.61
2018-01-08T01:11:14.966Z,929.64
2018-01-08T01:11:28.036Z,929.6
2018-01-08T01:11:41.153Z,929.66
2018-01-08T01:11:54.199Z,929.61
2018-01-08T01:12:07.236Z,929.57
2018-01-08T01:12:20.324Z,929.59
2018-01-08T01:12:33.387Z,929.64
2018-01-08T01:12:46.445Z,929.67
2018-01-08T01:12:59.477Z,929.57
2018-01-08T01:13:12.127Z,929.64
2018-01-08T01:13:25.241Z,929.61
2018-01-08T01:13:37.883Z,929.68
2018-01-08T01:13:50.992Z,929.68
2018-01-08T01:14:04.083Z,929.61
2018-01-08T01:14:17.083Z,929.65
2018-01-08T01:14:29.182Z,929.66
2018-01-08T01:14:42.259Z,929.65
2018-01-08T01:14:55.423Z,929.68
2018-01-08T01:15:08.469Z,929.67
2018-01-08T01:15:21.087Z,929.65
2018-01-08T01:15:33.712Z,929.58
2018-01-08T01:15:46.815Z,929.68
2018-01-08T01:15:59.931Z,929.65
2018-01-08T01:16:12.585Z,929.68
2018-01-08T01:16:25.714Z,929.65
2018-01-08T01:16:38.346Z,929.66
2018-01-08T01:16:51.477Z,929.64
2018-01-08T01:17:04.018Z,929.6
2018-01-08T01:17:17.076Z,929.64
2018-01-08T01:17:29.648Z,929.64
2018-01-08T01:17:42.720Z,929.59
2018-01-08T01:17:55.815Z,929.64
2018-01-08T01:18:08.904Z,929.65
2018-01-08T01:18:21.975Z,929.66
2018-01-08T01:18:35.083Z,929.59
2018-01-08T01:18:47.707Z,929.61
2018-01-08T01:19:00.369Z,929.63
2018-01-08T01:19:13.340Z,929.59
2018-01-08T01:19:25.903Z,929.59
2018-01-08T01:19:38.993Z,929.59
2018-01-08T01:19:51.187Z,929.62
2018-01-08T01:20:03.373Z,929.63
2018-01-08T01:20:15.979Z,929.59
2018-01-08T01:20:29.102Z,929.56
2018-01-08T01:20:41.696Z,929.65
2018-01-08T01:20:54.723Z,929.6
2018-01-08T01:21:07.772Z,929.61
2018-01-08T01:21:20.899Z,929.62
2018-01-08T01:21:33.552Z,929.62
2018-01-08T01:21:45.774Z,929.57
2018-01-08T01:21:58.380Z,929.61
2018-01-08T01:22:11.053Z,929.65
2018-01-08T01:22:24.148Z,929.55
2018-01-08T01:22:37.231Z,929.57
2018-01-08T01:22:50.300Z,929.63
2018-01-08T01:23:03.307Z,929.58
2018-01-08T01:23:15.930Z,929.68
2018-01-08T01:23:28.928Z,929.66
2018-01-08T01:23:41.544Z,929.6
2018-01-08T01:23:54.145Z,929.61
2018-01-08T01:24:07.155Z,929.58
2018-01-08T01:24:20.261Z,929.63
2018-01-08T01:24:33.376Z,929.61
2018-01-08T01:24:47.239Z,929.6
2018-01-08T01:25:00.326Z,929.65
2018-01-08T01:25:13.407Z,929.62
2018-01-08T01:25:26.437Z,929.66
2018-01-08T01:25:39.099Z,929.62
2018-01-08T01:25:51.193Z,929.62
2018-01-08T01:26:03.289Z,929.72
2018-01-08T01:26:15.851Z,929.59
2018-01-08T01:26:28.911Z,929.64
2018-01-08T01:26:41.964Z,929.55
2018-01-08T01:26:55.025Z,929.56
2018-01-08T01:27:08.087Z,929.57
2018-01-08T01:27:21.166Z,929.62
2018-01-08T01:27:33.513Z,929.6
2018-01-08T01:27:46.584Z,929.57
2018-01-08T01:27:59.193Z,929.58
2018-01-08T01:28:11.767Z,929.58
2018-01-08T01:28:24.905Z,929.61
2018-01-08T01:28:37.528Z,929.61
2018-01-08T01:28:50.135Z,929.55
2018-01-08T01:29:02.660Z,929.61
2018-01-08T01:29:15.203Z,929.58
2018-01-08T01:29:28.297Z,929.65
2018-01-08T01:29:40.892Z,929.6
2018-01-08T01:29:54.015Z,929.55
2018-01-08T01:30:06.572Z,929.58
2018-01-08T01:30:19.672Z,929.59
2018-01-08T01:30:32.336Z,929.58
2018-01-08T01:30:45.375Z,929.57
2018-01-08T01:30:58.483Z,929.58
2018-01-08T01:31:11.621Z,929.56
2018-01-08T01:31:23.680Z,929.6
2018-01-08T01:31:35.755Z,929.54
2018-01-08T01:31:48.383Z,929.54
2018-01-08T01:32:01.462Z,929.56
2018-01-08T01:32:14.082Z,929.55
2018-01-08T01:32:27.146Z,929.54
2018-01-08T01:32:40.225Z,929.59
2018-01-08T01:32:53.235Z,929.54
2018-01-08T01:33:05.829Z,929.52
2018-01-08T01:33:18.894Z,929.62
2018-01-08T01:33:31.447Z,929.55
2018-01-08T01:33:44.030Z,929.55
2018-01-08T01:33:57.141Z,929.62
2018-01-08T01:34:09.738Z,929.54
2018-01-08T01:34:22.420Z,929.53
2018-01-08T01:34:34.542Z,929.58
2018-01-08T01:34:47.565Z,929.56
2018-01-08T01:35:00.656Z,929.52
2018-01-08T01:35:13.774Z,929.55
2018-01-08T01:35:26.840Z,929.58
2018-01-08T01:35:39.471Z,929.57
2018-01-08T01:35:52.059Z,929.56
2018-01-08T01:36:05.119Z,929.52
2018-01-08T01:36:18.365Z,929.54
2018-01-08T01:36:31.355Z,929.55
2018-01-08T01:36:44.024Z,929.56
2018-01-08T01:36:56.177Z,929.56
2018-01-08T01:37:09.184Z,929.56
2018-01-08T01:37:22.260Z,929.54
2018-01-08T01:37:35.292Z,929.56
2018-01-08T01:37:46.931Z,929.62
2018-01-08T01:37:59.982Z,929.58
2018-01-08T01:38:11.683Z,929.57
2018-01-08T01:38:24.822Z,929.6
2018-01-08T01:38:37.019Z,929.6
2018-01-08T01:38:49.696Z,929.6
2018-01-08T01:39:02.791Z,929.59
2018-01-08T01:39:15.841Z,929.64
2018-01-08T01:39:28.888Z,929.59
2018-01-08T01:39:42.236Z,929.74
2018-01-08T01:39:55.325Z,929.64
2018-01-08T01:40:08.392Z,929.67
2018-01-08T01:40:20.995Z,929.62
2018-01-08T01:40:34.036Z,929.63
2018-01-08T01:40:47.123Z,929.66
2018-01-08T01:40:59.794Z,929.63
2018-01-08T01:41:12.439Z,929.63
2018-01-08T01:41:25.441Z,929.64
2018-01-08T01:41:38.507Z,929.63
2018-01-08T01:41:51.070Z,929.62
2018-01-08T01:42:04.217Z,929.61
2018-01-08T01:42:17.242Z,929.65
2018-01-08T01:42:30.328Z,929.67
2018-01-08T01:42:43.460Z,929.59
2018-01-08T01:42:56.579Z,929.64
2018-01-08T01:43:09.676Z,929.72
2018-01-08T01:43:22.790Z,929.71
2018-01-08T01:43:35.969Z,929.74
2018-01-08T01:43:49.076Z,929.66
2018-01-08T01:44:02.136Z,929.66
2018-01-08T01:44:15.223Z,929.63
2018-01-08T01:44:27.861Z,929.59
2018-01-08T01:44:40.997Z,929.58
2018-01-08T01:44:54.094Z,929.56
2018-01-08T01:45:06.659Z,929.59
2018-01-08T01:45:19.713Z,929.61
2018-01-08T01:45:32.357Z,929.58
2018-01-08T01:45:44.896Z,929.6
2018-01-08T01:45:57.991Z,929.61
2018-01-08T01:46:10.628Z,929.61
2018-01-08T01:46:23.248Z,929.59
2018-01-08T01:46:36.259Z,929.54
2018-01-08T01:46:49.549Z,929.61
2018-01-08T01:47:02.181Z,929.61
2018-01-08T01:47:14.829Z,929.59
2018-01-08T01:47:28.005Z,929.58
2018-01-08T01:47:40.665Z,929.61
2018-01-08T01:47:52.333Z,929.57
2018-01-08T01:48:04.987Z,929.61
2018-01-08T01:48:17.576Z,929.58
2018-01-08T01:48:30.687Z,929.59
2018-01-08T01:48:43.743Z,929.61
2018-01-08T01:48:56.825Z,929.53
2018-01-08T01:49:08.981Z,929.54
2018-01-08T01:49:22.071Z,929.59
2018-01-08T01:49:34.705Z,929.63
2018-01-08T01:49:47.321Z,929.55
2018-01-08T01:50:00.354Z,929.58
2018-01-08T01:50:12.485Z,929.56
2018-01-08T01:50:25.520Z,929.59
2018-01-08T01:50:38.189Z,929.54
2018-01-08T01:50:50.292Z,929.55
2018-01-08T01:51:03.408Z,929.55
2018-01-08T01:51:16.023Z,929.55
2018-01-08T01:51:29.196Z,929.6
2018-01-08T01:51:41.336Z,929.53
2018-01-08T01:51:53.995Z,929.57
2018-01-08T01:52:06.654Z,929.52
2018-01-08T01:52:19.670Z,929.54
2018-01-08T01:52:32.273Z,929.55
2018-01-08T01:52:44.830Z,929.55
2018-01-08T01:52:57.916Z,929.53
2018-01-08T01:53:10.505Z,929.58
2018-01-08T01:53:23.819Z,929.55
2018-01-08T01:53:36.858Z,929.53
2018-01-08T01:53:49.953Z,929.54
2018-01-08T01:54:03.049Z,929.55
2018-01-08T01:54:15.148Z,929.56
2018-01-08T01:54:27.700Z,929.63
2018-01-08T01:54:40.761Z,929.55
2018-01-08T01:54:54.700Z,929.54
2018-01-08T01:55:06.426Z,929.58
2018-01-08T01:55:19.069Z,929.57
2018-01-08T01:55:32.127Z,929.53
2018-01-08T01:55:44.263Z,929.56
2018-01-08T01:55:56.830Z,929.53
2018-01-08T01:56:08.983Z,929.6
2018-01-08T01:56:22.088Z,929.6
2018-01-08T01:56:34.259Z,929.53
2018-01-08T01:56:46.455Z,929.6
2018-01-08T01:56:59.492Z,929.62
2018-01-08T01:57:12.075Z,929.58
2018-01-08T01:57:25.182Z,929.57
2018-01-08T01:57:37.784Z,929.53
2018-01-08T01:57:50.882Z,929.56
2018-01-08T01:58:03.040Z,929.54
2018-01-08T01:58:16.094Z,929.56
2018-01-08T01:58:29.210Z,929.59
2018-01-08T01:58:41.332Z,929.58
2018-01-08T01:58:53.890Z,929.62
2018-01-08T01:59:07.001Z,929.65
2018-01-08T01:59:20.072Z,929.61
2018-01-08T01:59:33.074Z,929.55
2018-01-08T01:59:46.169Z,929.58
2018-01-08T01:59:59.065Z,929.54
2018-01-08T02:00:12.218Z,929.64
2018-01-08T02:00:23.880Z,929.63
2018-01-08T02:00:36.942Z,929.61
2018-01-08T02:00:50.199Z,929.55
2018-01-08T02:01:03.313Z,929.54
2018-01-08T02:01:16.372Z,929.56
2018-01-08T02:01:29.518Z,929.57
2018-01-08T02:01:42.069Z,929.56
2018-01-08T02:01:55.120Z,929.53
2018-01-08T02:02:08.365Z,929.54
2018-01-08T02:02:21.397Z,929.55
2018-01-08T02:02:34.502Z,929.53
2018-01-08T02:02:47.601Z,929.46
2018-01-08T02:03:00.716Z,929.51
2018-01-08T02:03:13.958Z,929.5
2018-01-08T02:03:27.023Z,929.52
2018-01-08T02:03:39.634Z,929.53
2018-01-08T02:03:52.671Z,929.52
2018-01-08T02:04:04.835Z,929.54
2018-01-08T02:04:17.467Z,929.52
2018-01-08T02:04:30.132Z,929.55
2018-01-08T02:04:43.282Z,929.5
2018-01-08T02:04:56.360Z,929.5
2018-01-08T02:05:09.470Z,929.49
2018-01-08T02:05:22.485Z,929.53
2018-01-08T02:05:35.531Z,929.47
2018-01-08T02:05:48.610Z,929.51
2018-01-08T02:06:01.629Z,929.52
2018-01-08T02:06:14.741Z,929.52
2018-01-08T02:06:27.751Z,929.53
2018-01-08T02:06:40.377Z,929.52
2018-01-08T02:06:53.113Z,929.49
2018-01-08T02:07:06.227Z,929.48
2018-01-08T02:07:18.819Z,929.51
2018-01-08T02:07:31.946Z,929.5
2018-01-08T02:07:45.015Z,929.5
2018-01-08T02:07:58.057Z,929.53
2018-01-08T02:08:11.055Z,929.49
2018-01-08T02:08:24.149Z,929.53
2018-01-08T02:08:36.809Z,929.63
2018-01-08T02:08:49.883Z,929.68
2018-01-08T02:09:02.627Z,929.5
2018-01-08T02:09:15.650Z,929.51
2018-01-08T02:09:28.706Z,929.55
2018-01-08T02:09:41.790Z,929.54
2018-01-08T02:09:54.517Z,929.53
2018-01-08T02:10:08.012Z,929.5
2018-01-08T02:10:21.077Z,929.6
2018-01-08T02:10:34.210Z,929.55
2018-01-08T02:10:46.816Z,929.53
2018-01-08T02:10:59.386Z,929.49
2018-01-08T02:11:12.479Z,929.5
2018-01-08T02:11:25.501Z,929.5
2018-01-08T02:11:38.081Z,929.52
2018-01-08T02:11:51.193Z,929.52
2018-01-08T02:12:04.230Z,929.53
2018-01-08T02:12:16.831Z,929.57
2018-01-08T02:12:29.972Z,929.54
2018-01-08T02:12:43.072Z,929.59
2018-01-08T02:12:56.134Z,929.62
2018-01-08T02:13:09.160Z,929.56
2018-01-08T02:13:21.276Z,929.53
2018-01-08T02:13:34.310Z,929.52
2018-01-08T02:13:47.357Z,929.5
2018-01-08T02:14:00.459Z,929.5
2018-01-08T02:14:13.513Z,929.52
2018-01-08T02:14:26.621Z,929.54
2018-01-08T02:14:39.749Z,929.5
2018-01-08T02:14:52.804Z,929.51
2018-01-08T02:15:05.895Z,929.51
2018-01-08T02:15:18.498Z,929.53
2018-01-08T02:15:31.095Z,929.53
2018-01-08T02:15:43.748Z,929.52
2018-01-08T02:15:56.785Z,929.52
2018-01-08T02:16:09.388Z,929.56
2018-01-08T02:16:22.518Z,929.53
2018-01-08T02:16:35.648Z,929.55
2018-01-08T02:16:48.721Z,929.49
2018-01-08T02:17:01.804Z,929.51
2018-01-08T02:17:14.878Z,929.52
2018-01-08T02:17:27.900Z,929.53
2018-01-08T02:17:40.557Z,929.51
2018-01-08T02:17:53.734Z,929.5
2018-01-08T02:18:06.366Z,929.53
2018-01-08T02:18:18.105Z,929.53
2018-01-08T02:18:31.197Z,929.56
2018-01-08T02:18:43.380Z,929.51
2018-01-08T02:18:56.486Z,929.53
2018-01-08T02:19:09.494Z,929.53
2018-01-08T02:19:22.524Z,929.53
2018-01-08T02:19:35.197Z,929.6
2018-01-08T02:19:47.287Z,929.52
2018-01-08T02:20:00.427Z,929.53
2018-01-08T02:20:13.046Z,929.55
2018-01-08T02:20:25.656Z,929.52
2018-01-08T02:20:38.280Z,929.52
2018-01-08T02:20:51.346Z,929.47
2018-01-08T02:21:03.976Z,929.52
2018-01-08T02:21:17.043Z,929.53
2018-01-08T02:21:29.758Z,929.53
2018-01-08T02:21:42.372Z,929.5
2018-01-08T02:21:54.971Z,929.53
2018-01-08T02:22:08.101Z,929.49
2018-01-08T02:22:20.674Z,929.51
2018-01-08T02:22:33.360Z,929.49
2018-01-08T02:22:45.990Z,929.54
2018-01-08T02:22:59.125Z,929.52
2018-01-08T02:23:11.815Z,929.54
2018-01-08T02:23:24.972Z,929.51
2018-01-08T02:23:38.033Z,929.49
2018-01-08T02:23:51.179Z,929.47
2018-01-08T02:24:04.210Z,929.54
2018-01-08T02:24:16.744Z,929.52
2018-01-08T02:24:29.359Z,929.52
2018-01-08T02:24:41.051Z,929.56
2018-01-08T02:24:54.142Z,929.52
2018-01-08T02:25:07.675Z,929.53
2018-01-08T02:25:20.276Z,929.52
2018-01-08T02:25:33.359Z,929.52
2018-01-08T02:25:46.460Z,929.59
2018-01-08T02:25:59.464Z,929.57
2018-01-08T02:26:12.077Z,929.51
2018-01-08T02:26:25.325Z,929.55
2018-01-08T02:26:37.887Z,929.54
2018-01-08T02:26:50.956Z,929.52
2018-01-08T02:27:04.039Z,929.56
2018-01-08T02:27:17.065Z,929.52
2018-01-08T02:27:30.098Z,929.54
2018-01-08T02:27:42.720Z,929.57
2018-01-08T02:27:55.828Z,929.55
2018-01-08T02:28:08.413Z,929.54
2018-01-08T02:28:21.564Z,929.52
2018-01-08T02:28:33.690Z,929.54
2018-01-08T02:28:46.297Z,929.52
2018-01-08T02:28:59.347Z,929.53
2018-01-08T02:29:11.951Z,929.46
2018-01-08T02:29:24.976Z,929.56
2018-01-08T02:29:37.116Z,929.57
2018-01-08T02:29:49.750Z,929.6
2018-01-08T02:30:02.911Z,929.53
2018-01-08T02:30:15.506Z,929.51
2018-01-08T02:30:28.119Z,929.5
2018-01-08T02:30:40.781Z,929.49
2018-01-08T02:30:53.795Z,929.51
2018-01-08T02:31:06.412Z,929.51
2018-01-08T02:31:19.447Z,929.45
2018-01-08T02:31:32.290Z,929.47
2018-01-08T02:31:45.402Z,929.47
2018-01-08T02:31:57.992Z,929.47
2018-01-08T02:32:10.124Z,929.49
2018-01-08T02:32:23.238Z,929.5
2018-01-08T02:32:36.351Z,929.49
2018-01-08T02:32:48.465Z,929.47
2018-01-08T02:33:01.521Z,929.48
2018-01-08T02:33:14.599Z,929.47
2018-01-08T02:33:27.680Z,929.51
2018-01-08T02:33:40.766Z,929.45
2018-01-08T02:33:53.355Z,929.47
2018-01-08T02:34:06.489Z,929.45
2018-01-08T02:34:19.571Z,929.45
2018-01-08T02:34:31.714Z,929.48
2018-01-08T02:34:44.375Z,929.42
2018-01-08T02:34:57.484Z,929.49
2018-01-08T02:35:10.552Z,929.49
2018-01-08T02:35:23.591Z,929.47
2018-01-08T02:35:35.774Z,929.45
2018-01-08T02:35:48.897Z,929.41
2018-01-08T02:36:01.485Z,929.45
2018-01-08T02:36:14.541Z,929.43
2018-01-08T02:36:27.671Z,929.44
2018-01-08T02:36:40.705Z,929.43
2018-01-08T02:36:53.792Z,929.41
2018-01-08T02:37:06.352Z,929.42
2018-01-08T02:37:18.988Z,929.43
2018-01-08T02:37:31.617Z,929.41
2018-01-08T02:37:44.666Z,929.41
2018-01-08T02:37:57.644Z,929.46
2018-01-08T02:38:10.324Z,929.4
2018-01-08T02:38:23.402Z,929.39
2018-01-08T02:38:36.495Z,929.4
2018-01-08T02:38:49.551Z,929.39
2018-01-08T02:39:02.187Z,929.42
2018-01-08T02:39:14.830Z,929.43
2018-01-08T02:39:28.003Z,929.45
2018-01-08T02:39:41.110Z,929.37
2018-01-08T02:39:54.176Z,929.4
2018-01-08T02:40:07.216Z,929.39
2018-01-08T02:40:19.824Z,929.36
2018-01-08T02:40:32.448Z,929.41
2018-01-08T02:40:45.034Z,929.41